Time;durP1;ratioP1;P1;durP2;ratioP2;P2;SDS_P1;SDS_P2;PMS_P1;PMS_P2;Temp;Humidity;BMP_temperature;BMP_pressure;BME280_temperature;BME280_humidity;BME280_pressure;Samples;Min_cycle;Max_cycle;Signal;HPM_P1;HPM_P2
2022/02/06 00:00:40;;;;;;;13.68;8.45;;;5.00;99.90;;;;;;5061402;28;20024;-54
2022/02/06 00:03:06;;;;;;;10.82;7.60;;;5.00;99.90;;;;;;5079539;28;20020;-55
2022/02/06 00:05:31;;;;;;;9.55;7.43;;;5.00;99.90;;;;;;5061135;28;20111;-54
2022/02/06 00:08:00;;;;;;;8.60;7.70;;;5.00;99.90;;;;;;5079768;28;20119;-55
2022/02/06 00:10:26;;;;;;;8.02;7.20;;;5.10;99.90;;;;;;5078733;28;20046;-55
2022/02/06 00:12:51;;;;;;;8.18;6.93;;;5.10;99.90;;;;;;5079951;28;20024;-56
2022/02/06 00:15:18;;;;;;;8.45;6.60;;;5.10;99.90;;;;;;5078775;28;20243;-57
2022/02/06 00:17:45;;;;;;;7.15;6.45;;;5.10;99.90;;;;;;5078711;28;20059;-56
2022/02/06 00:20:10;;;;;;;6.88;6.20;;;5.10;99.90;;;;;;5078939;28;20025;-54
2022/02/06 00:22:41;;;;;;;9.15;6.28;;;5.20;99.90;;;;;;5060532;28;20035;-54
2022/02/06 00:25:21;;;;;;;9.77;5.97;;;5.20;99.90;;;;;;5061272;28;20551;-56
2022/02/06 00:33:16;;;;;;;6.65;5.32;;;5.30;99.90;;;;;;5079672;28;20403;-55
2022/02/06 00:41:21;;;;;;;6.07;4.80;;;5.30;99.90;;;;;;5034991;28;20051;-57
2022/02/06 00:43:48;;;;;;;6.80;5.25;;;5.30;99.90;;;;;;5058304;28;20519;-56
2022/02/06 00:46:16;;;;;;;6.32;5.72;;;5.30;99.90;;;;;;5077493;28;20480;-55
2022/02/06 00:48:45;;;;;;;5.60;5.00;;;5.30;99.90;;;;;;5077801;28;20542;-53
2022/02/06 00:51:20;;;;;;;5.80;5.20;;;5.30;99.90;;;;;;5060842;28;20012;-55
2022/02/06 00:53:46;;;;;;;5.35;4.60;;;5.30;99.90;;;;;;5077910;28;20167;-55
2022/02/06 00:56:11;;;;;;;5.38;4.60;;;5.40;99.90;;;;;;5078115;28;20020;-57
2022/02/06 00:58:37;;;;;;;6.38;5.45;;;5.40;99.90;;;;;;5079320;28;20107;-57
2022/02/06 01:01:04;;;;;;;5.47;4.95;;;5.40;99.90;;;;;;5081870;28;20035;-59
2022/02/06 01:03:29;;;;;;;7.00;5.07;;;5.40;99.90;;;;;;5081449;28;20028;-58
2022/02/06 01:05:55;;;;;;;5.82;5.32;;;5.40;99.90;;;;;;5064121;28;20127;-58
2022/02/06 01:08:21;;;;;;;6.95;5.03;;;5.40;99.90;;;;;;5081793;28;20082;-54
2022/02/06 01:10:47;;;;;;;6.43;5.25;;;5.40;99.90;;;;;;5080541;28;20074;-56
2022/02/06 01:15:54;;;;;;;5.40;4.90;;;5.40;99.90;;;;;;5082088;28;20035;-57
2022/02/06 01:18:26;;;;;;;6.40;4.90;;;5.40;99.90;;;;;;5058432;28;20035;-57
2022/02/06 01:21:01;;;;;;;5.32;4.82;;;5.40;99.90;;;;;;5076259;28;20060;-56
2022/02/06 01:23:32;;;;;;;6.35;4.78;;;5.40;99.90;;;;;;5062611;28;20034;-57
2022/02/06 01:26:04;;;;;;;5.20;4.70;;;5.40;99.90;;;;;;5080387;28;20123;-58
2022/02/06 01:28:41;;;;;;;5.60;4.63;;;5.40;99.90;;;;;;5081993;28;20428;-58
2022/02/06 01:33:42;;;;;;;6.75;4.25;;;5.40;99.90;;;;;;5082579;28;20027;-56
2022/02/06 01:36:40;;;;;;;6.22;4.70;;;5.40;99.90;;;;;;5081663;28;20569;-56
2022/02/06 01:41:23;;;;;;;5.40;4.88;;;5.50;99.90;;;;;;5081590;28;20032;-53
2022/02/06 01:44:10;;;;;;;5.97;5.20;;;5.50;99.90;;;;;;5081349;28;20028;-56
2022/02/06 02:24:07;;;;;;;5.05;4.63;;;5.70;99.90;;;;;;5082119;28;20024;-58
2022/02/06 02:48:04;;;;;;;4.43;3.75;;;5.70;99.90;;;;;;5081712;28;20029;-56
2022/02/06 02:50:33;;;;;;;4.03;3.63;;;5.70;99.90;;;;;;5062150;28;20073;-54
2022/02/06 03:00:50;;;;;;;4.50;4.10;;;5.70;99.90;;;;;;5082479;28;20110;-55
2022/02/06 03:03:19;;;;;;;4.25;3.58;;;5.70;99.90;;;;;;5080378;28;20105;-58
2022/02/06 03:05:48;;;;;;;4.65;3.50;;;5.80;99.90;;;;;;5080727;28;20038;-56
2022/02/06 03:08:14;;;;;;;4.63;3.72;;;5.80;99.90;;;;;;5081198;28;20510;-58
2022/02/06 03:10:39;;;;;;;4.22;3.83;;;5.80;99.90;;;;;;5081916;28;20016;-59
2022/02/06 03:13:09;;;;;;;3.63;3.33;;;5.80;99.90;;;;;;5081320;28;20498;-57
2022/02/06 03:18:04;;;;;;;4.22;3.53;;;5.80;99.90;;;;;;5081112;28;20476;-55
2022/02/06 03:20:31;;;;;;;4.32;3.65;;;5.80;99.90;;;;;;5082242;28;20495;-54
2022/02/06 03:23:00;;;;;;;3.78;3.38;;;5.90;99.90;;;;;;5080217;28;20032;-55
2022/02/06 03:25:26;;;;;;;4.03;3.63;;;5.90;99.90;;;;;;5062706;28;20082;-56
2022/02/06 03:27:53;;;;;;;4.28;3.88;;;5.90;99.90;;;;;;5080440;28;20034;-55
2022/02/06 03:30:20;;;;;;;5.10;3.95;;;5.90;99.90;;;;;;5081116;28;20027;-51
2022/02/06 03:32:47;;;;;;;4.60;3.30;;;5.90;99.90;;;;;;5080485;28;20111;-55
2022/02/06 03:35:13;;;;;;;4.43;3.22;;;5.90;99.90;;;;;;5080172;28;20038;-53
2022/02/06 03:37:40;;;;;;;4.53;2.80;;;5.90;99.90;;;;;;5079367;28;20024;-58
2022/02/06 03:40:08;;;;;;;3.85;3.55;;;5.90;99.90;;;;;;5080703;28;20035;-55
2022/02/06 03:42:35;;;;;;;3.80;3.50;;;5.90;99.90;;;;;;5080332;28;20035;-55
2022/02/06 03:45:07;;;;;;;5.95;4.18;;;5.90;99.90;;;;;;5080340;28;20020;-57
2022/02/06 03:47:57;;;;;;;4.18;3.78;;;6.00;99.90;;;;;;5079934;28;20409;-57
2022/02/06 03:50:31;;;;;;;4.82;4.22;;;6.00;99.90;;;;;;5080121;28;20494;-52
2022/02/06 03:52:57;;;;;;;6.70;4.60;;;6.00;99.90;;;;;;5079977;28;20029;-58
2022/02/06 03:55:23;;;;;;;3.95;3.40;;;6.00;99.90;;;;;;5078606;28;20381;-52
2022/02/06 03:57:50;;;;;;;4.82;3.95;;;6.00;99.90;;;;;;5080567;28;20438;-54
2022/02/06 04:00:17;;;;;;;4.78;3.72;;;6.00;99.90;;;;;;5081252;28;20028;-60
2022/02/06 04:02:43;;;;;;;7.40;4.10;;;6.00;99.90;;;;;;5079911;28;20059;-52
2022/02/06 04:05:09;;;;;;;5.05;4.35;;;6.00;99.90;;;;;;5079344;28;20051;-56
2022/02/06 04:07:35;;;;;;;5.78;3.85;;;6.10;99.90;;;;;;5080349;28;20418;-54
2022/02/06 04:10:01;;;;;;;4.65;4.15;;;6.10;99.90;;;;;;5081424;28;20027;-55
2022/02/06 04:12:29;;;;;;;4.82;4.43;;;6.10;99.90;;;;;;5079806;28;20457;-55
2022/02/06 04:14:56;;;;;;;4.60;4.07;;;6.10;99.90;;;;;;5079039;28;20369;-56
2022/02/06 04:17:26;;;;;;;4.70;3.80;;;6.10;99.90;;;;;;5080525;28;20678;-52
2022/02/06 04:19:52;;;;;;;5.07;3.92;;;6.10;99.90;;;;;;5080171;28;20669;-57
2022/02/06 04:22:19;;;;;;;4.50;4.10;;;6.10;99.90;;;;;;5079959;28;20052;-55
2022/02/06 04:24:45;;;;;;;4.43;4.03;;;6.10;99.90;;;;;;5079456;28;20020;-53
2022/02/06 04:27:11;;;;;;;5.82;3.63;;;6.10;99.90;;;;;;5081324;28;20046;-51
2022/02/06 04:29:37;;;;;;;4.68;4.28;;;6.10;99.90;;;;;;5078832;28;20033;-56
2022/02/06 04:32:07;;;;;;;6.18;4.05;;;6.10;99.90;;;;;;5079718;28;20067;-53
2022/02/06 04:34:33;;;;;;;5.28;4.18;;;6.20;99.90;;;;;;5082623;28;20032;-54
2022/02/06 04:37:11;;;;;;;4.85;3.63;;;6.20;99.90;;;;;;5084100;28;20421;-49
2022/02/06 04:48:09;;;;;;;3.90;3.47;;;6.20;99.90;;;;;;5028862;28;20033;-56
2022/02/06 04:55:55;;;;;;;3.85;3.08;;;6.20;99.90;;;;;;5083510;28;20039;-54
2022/02/06 05:11:12;;;;;;;4.68;3.25;;;6.20;99.90;;;;;;5083322;28;20042;-52
2022/02/06 05:20:20;;;;;;;3.78;2.60;;;6.30;99.90;;;;;;5084110;28;20048;-58
2022/02/06 05:30:55;;;;;;;2.70;2.50;;;6.40;99.90;;;;;;5082872;28;20034;-57
2022/02/06 05:33:21;;;;;;;3.45;2.70;;;6.30;99.90;;;;;;5082317;28;20081;-57
2022/02/06 05:35:46;;;;;;;5.43;2.40;;;6.30;99.90;;;;;;5083403;28;20484;-54
2022/02/06 05:38:12;;;;;;;3.13;2.65;;;6.40;99.90;;;;;;5082472;28;20504;-57
2022/02/06 05:40:37;;;;;;;5.85;2.85;;;6.40;99.90;;;;;;5082471;28;20067;-56
2022/02/06 05:43:03;;;;;;;3.90;2.17;;;6.40;99.90;;;;;;5081605;28;20021;-52
2022/02/06 05:45:29;;;;;;;2.72;2.20;;;6.40;99.90;;;;;;5081913;28;20032;-52
2022/02/06 05:47:55;;;;;;;3.00;1.88;;;6.40;99.90;;;;;;5081278;28;20039;-56
2022/02/06 05:50:22;;;;;;;2.58;1.75;;;6.40;99.90;;;;;;5063012;28;20020;-58
2022/02/06 05:52:49;;;;;;;4.43;2.10;;;6.40;99.90;;;;;;5082615;28;20024;-54
2022/02/06 05:55:14;;;;;;;2.85;1.90;;;6.40;99.90;;;;;;5082458;28;20027;-52
2022/02/06 05:57:41;;;;;;;2.22;1.60;;;6.40;99.90;;;;;;5081176;28;20024;-57
2022/02/06 06:00:09;;;;;;;2.13;1.30;;;6.40;99.90;;;;;;5082045;28;20081;-56
2022/02/06 06:02:35;;;;;;;2.42;1.08;;;6.50;99.90;;;;;;5063275;28;20116;-55
2022/02/06 06:05:01;;;;;;;6.82;1.20;;;6.50;99.90;;;;;;5081645;28;20050;-55
2022/02/06 06:07:26;;;;;;;2.28;1.13;;;6.50;99.90;;;;;;5081797;28;20032;-53
2022/02/06 06:09:52;;;;;;;1.60;1.20;;;6.50;99.90;;;;;;5081236;28;20062;-51
2022/02/06 06:12:17;;;;;;;4.63;1.50;;;6.50;99.90;;;;;;5082204;28;20109;-52
2022/02/06 06:14:46;;;;;;;3.67;1.30;;;6.60;99.90;;;;;;5081477;28;20032;-53
2022/02/06 06:17:12;;;;;;;1.52;0.90;;;6.60;99.90;;;;;;5082439;28;20423;-52
2022/02/06 06:19:41;;;;;;;5.43;1.60;;;6.60;99.90;;;;;;5081169;28;20040;-56
2022/02/06 06:22:08;;;;;;;2.47;1.15;;;6.60;99.90;;;;;;5082952;28;20028;-54
2022/02/06 06:24:44;;;;;;;2.92;1.25;;;6.60;99.90;;;;;;5080744;28;20035;-58
2022/02/06 06:27:10;;;;;;;2.63;1.45;;;6.60;99.90;;;;;;5082765;28;20024;-55
2022/02/06 06:29:37;;;;;;;4.25;1.77;;;6.60;99.90;;;;;;5083327;28;20036;-51
2022/02/06 06:32:03;;;;;;;6.32;1.30;;;6.60;99.90;;;;;;5082816;28;20036;-53
2022/02/06 06:34:29;;;;;;;6.50;1.67;;;6.60;99.90;;;;;;5063894;28;20640;-55
2022/02/06 06:36:54;;;;;;;7.90;1.77;;;6.60;99.90;;;;;;5081845;28;20024;-51
2022/02/06 06:39:31;;;;;;;4.43;1.05;;;6.60;99.90;;;;;;5081736;28;20173;-56
2022/02/06 06:41:57;;;;;;;5.22;1.90;;;6.60;99.90;;;;;;5062490;28;20442;-53
2022/02/06 06:44:22;;;;;;;3.17;1.20;;;6.60;99.90;;;;;;5080115;28;20040;-51
2022/02/06 06:46:48;;;;;;;4.80;1.70;;;6.60;99.90;;;;;;5080878;28;20036;-55
2022/02/06 06:49:13;;;;;;;3.92;1.65;;;6.60;99.90;;;;;;5080979;28;20036;-54
2022/02/06 06:51:39;;;;;;;4.47;1.35;;;6.60;99.90;;;;;;5082093;28;20029;-51
2022/02/06 06:54:12;;;;;;;4.93;1.40;;;6.60;99.90;;;;;;5061823;28;20032;-56
2022/02/06 06:56:45;;;;;;;4.55;1.67;;;6.60;99.90;;;;;;5080697;28;20554;-53
2022/02/06 06:59:26;;;;;;;5.85;1.88;;;6.60;99.90;;;;;;5062894;28;20067;-54
2022/02/06 07:02:05;;;;;;;3.65;1.80;;;6.60;99.90;;;;;;5081102;28;20060;-51
2022/02/06 07:04:30;;;;;;;3.90;1.48;;;6.60;99.90;;;;;;5080585;28;20040;-54
2022/02/06 07:06:56;;;;;;;2.17;1.38;;;6.50;99.90;;;;;;5081214;28;20615;-52
2022/02/06 07:09:23;;;;;;;3.20;0.77;;;6.50;99.90;;;;;;5080375;28;20130;-56
2022/02/06 07:11:48;;;;;;;1.50;0.75;;;6.50;99.90;;;;;;5080408;28;20099;-59
2022/02/06 07:14:14;;;;;;;4.72;1.05;;;6.40;99.90;;;;;;5081326;28;20099;-52
2022/02/06 07:16:40;;;;;;;3.13;0.80;;;6.40;99.90;;;;;;5080924;28;20063;-52
2022/02/06 07:19:05;;;;;;;4.00;0.60;;;6.40;99.90;;;;;;5080487;28;20040;-59
2022/02/06 07:21:34;;;;;;;3.15;1.05;;;6.30;99.90;;;;;;5081594;28;20036;-53
2022/02/06 07:24:00;;;;;;;1.38;0.50;;;6.30;99.90;;;;;;5080367;28;20035;-58
2022/02/06 07:26:26;;;;;;;2.22;0.82;;;6.30;99.90;;;;;;5080729;28;20073;-59
2022/02/06 07:28:58;;;;;;;0.75;0.45;;;6.20;99.90;;;;;;5081246;28;20115;-55
2022/02/06 07:31:23;;;;;;;2.35;0.55;;;6.20;99.90;;;;;;5079951;28;20035;-54
2022/02/06 07:33:49;;;;;;;1.65;0.63;;;6.20;99.90;;;;;;5080177;28;20024;-54
2022/02/06 07:36:16;;;;;;;1.10;0.38;;;6.20;99.90;;;;;;5080024;28;20522;-55
2022/02/06 07:38:42;;;;;;;0.43;0.38;;;6.20;99.90;;;;;;5079966;28;20054;-57
2022/02/06 07:41:07;;;;;;;0.80;0.40;;;6.10;99.90;;;;;;5081175;28;20040;-54
2022/02/06 07:43:33;;;;;;;1.90;0.25;;;6.10;99.90;;;;;;5080302;28;20036;-51
2022/02/06 07:45:59;;;;;;;0.95;0.47;;;6.10;99.90;;;;;;5080591;28;20399;-54
2022/02/06 07:48:25;;;;;;;3.28;0.77;;;6.00;99.90;;;;;;5080432;28;20161;-53
2022/02/06 07:50:50;;;;;;;0.40;0.30;;;6.00;99.90;;;;;;5079826;28;20120;-57
2022/02/06 07:53:16;;;;;;;4.78;0.70;;;6.00;99.90;;;;;;5079000;28;20051;-51
2022/02/06 07:55:42;;;;;;;1.23;0.55;;;6.00;99.90;;;;;;5079806;28;20024;-52
2022/02/06 07:58:07;;;;;;;3.38;1.10;;;6.00;99.90;;;;;;5081329;28;20411;-51
2022/02/06 08:00:33;;;;;;;0.63;0.30;;;6.10;99.90;;;;;;5062407;28;20028;-56
2022/02/06 08:02:58;;;;;;;0.22;0.20;;;6.00;99.90;;;;;;5079806;28;20035;-55
2022/02/06 08:05:25;;;;;;;1.05;0.40;;;6.00;99.90;;;;;;5080334;28;20024;-50
2022/02/06 08:07:52;;;;;;;2.95;0.82;;;6.00;99.90;;;;;;5078125;28;20060;-52
2022/02/06 08:10:20;;;;;;;1.38;0.70;;;6.10;99.90;;;;;;5080023;28;20920;-52
2022/02/06 08:12:53;;;;;;;1.95;0.40;;;6.00;99.90;;;;;;5079234;28;20395;-51
2022/02/06 08:15:19;;;;;;;2.83;0.43;;;6.00;99.90;;;;;;5079297;28;20035;-55
2022/02/06 08:17:45;;;;;;;1.40;0.50;;;6.00;99.90;;;;;;5079337;28;20032;-56
2022/02/06 08:20:15;;;;;;;2.58;0.35;;;6.00;99.90;;;;;;5079058;28;20040;-51
2022/02/06 08:22:42;;;;;;;1.73;0.40;;;6.00;99.90;;;;;;5079035;28;20021;-56
2022/02/06 08:25:10;;;;;;;0.93;0.50;;;6.00;99.90;;;;;;5061690;28;20120;-57
2022/02/06 08:27:35;;;;;;;1.92;0.52;;;6.00;99.90;;;;;;5062471;28;20534;-57
2022/02/06 08:30:01;;;;;;;1.08;0.57;;;6.00;99.90;;;;;;5080295;28;20060;-53
2022/02/06 08:32:28;;;;;;;1.70;0.30;;;6.00;99.90;;;;;;5078324;28;20044;-55
2022/02/06 08:34:54;;;;;;;1.38;0.70;;;6.00;99.90;;;;;;5077602;28;20081;-56
2022/02/06 08:37:20;;;;;;;0.80;0.30;;;6.10;99.90;;;;;;5060458;28;20031;-54
2022/02/06 08:39:46;;;;;;;1.08;0.28;;;6.00;99.90;;;;;;5079117;28;20029;-57
2022/02/06 08:42:13;;;;;;;1.65;0.40;;;6.00;99.90;;;;;;5078395;28;20024;-54
2022/02/06 08:44:44;;;;;;;1.70;0.82;;;6.10;99.90;;;;;;5078755;28;20024;-53
2022/02/06 08:47:12;;;;;;;2.85;0.52;;;6.00;99.90;;;;;;5080174;28;20496;-54
2022/02/06 08:49:40;;;;;;;1.38;0.70;;;6.10;99.90;;;;;;5078154;28;20495;-56
2022/02/06 08:52:07;;;;;;;0.55;0.20;;;6.10;99.90;;;;;;5077963;28;20012;-50
2022/02/06 08:54:35;;;;;;;0.38;0.38;;;6.10;99.90;;;;;;5079190;28;20052;-53
2022/02/06 08:57:06;;;;;;;0.88;0.40;;;6.10;99.90;;;;;;5078613;28;20008;-54
2022/02/06 08:59:34;;;;;;;1.08;0.50;;;6.10;99.90;;;;;;5078658;28;20074;-50
2022/02/06 09:02:01;;;;;;;1.02;0.50;;;6.10;99.90;;;;;;5079053;28;20028;-53
2022/02/06 09:04:27;;;;;;;0.60;0.32;;;6.20;99.90;;;;;;5079343;28;20020;-58
2022/02/06 09:06:57;;;;;;;0.47;0.22;;;6.20;99.90;;;;;;5061499;28;20082;-55
2022/02/06 09:09:24;;;;;;;1.40;0.45;;;6.20;99.90;;;;;;5080029;28;20028;-52
2022/02/06 09:11:51;;;;;;;1.70;0.52;;;6.20;99.90;;;;;;5080335;28;20024;-59
2022/02/06 09:14:18;;;;;;;1.83;0.50;;;6.20;99.90;;;;;;5079043;28;20012;-54
2022/02/06 09:16:44;;;;;;;1.70;0.40;;;6.20;99.90;;;;;;5078782;28;20027;-54
2022/02/06 09:19:12;;;;;;;1.23;0.22;;;6.30;99.90;;;;;;5083069;28;20400;-56
2022/02/06 09:21:41;;;;;;;1.40;0.30;;;6.20;99.90;;;;;;5087282;28;20039;-56
2022/02/06 09:24:07;;;;;;;0.40;0.17;;;6.20;99.90;;;;;;5067662;28;20024;-54
2022/02/06 09:26:35;;;;;;;0.98;0.45;;;6.20;99.90;;;;;;5085882;28;20012;-57
2022/02/06 09:29:01;;;;;;;3.10;0.30;;;6.20;99.90;;;;;;5067222;28;20035;-53
2022/02/06 09:31:27;;;;;;;0.85;0.15;;;6.20;99.90;;;;;;5085819;28;20024;-57
2022/02/06 09:36:19;;;;;;;1.17;0.15;;;6.10;99.90;;;;;;5082264;28;20054;-53
2022/02/06 09:38:44;;;;;;;0.63;0.30;;;6.10;99.90;;;;;;5081287;28;20558;-50
2022/02/06 09:41:10;;;;;;;0.13;0.13;;;6.10;99.90;;;;;;5082959;28;20020;-54
2022/02/06 09:43:38;;;;;;;0.93;0.55;;;6.10;99.90;;;;;;5082247;28;20020;-55
2022/02/06 09:46:04;;;;;;;2.30;0.25;;;6.00;99.90;;;;;;5081823;28;20511;-55
2022/02/06 09:48:30;;;;;;;0.20;0.15;;;6.00;99.90;;;;;;5082288;28;20020;-55
2022/02/06 09:50:57;;;;;;;1.33;0.20;;;6.00;99.90;;;;;;5081730;28;20021;-57
2022/02/06 09:53:27;;;;;;;1.48;0.40;;;6.00;99.90;;;;;;5080953;28;20048;-54
2022/02/06 09:55:53;;;;;;;1.85;0.32;;;6.00;99.90;;;;;;5082262;28;20078;-55
2022/02/06 09:58:55;;;;;;;1.05;0.55;;;6.00;99.90;;;;;;5083046;28;20387;-55
2022/02/06 10:01:06;;;;;;;1.00;0.43;;;6.00;99.90;;;;;;5081908;28;20034;-55
2022/02/06 10:03:42;;;;;;;0.63;0.50;;;6.00;99.90;;;;;;5062922;28;20032;-55
2022/02/06 10:06:15;;;;;;;0.63;0.33;;;6.00;99.90;;;;;;5082256;28;20032;-55
2022/02/06 10:08:43;;;;;;;0.47;0.30;;;6.00;99.90;;;;;;5081986;28;20298;-54
2022/02/06 10:11:14;;;;;;;0.45;0.43;;;5.90;99.90;;;;;;5081962;28;20028;-57
2022/02/06 10:13:44;;;;;;;0.68;0.52;;;5.90;99.90;;;;;;5081895;28;20396;-50
2022/02/06 10:16:15;;;;;;;1.00;0.70;;;6.00;99.90;;;;;;5082237;28;20023;-53
2022/02/06 10:18:44;;;;;;;0.70;0.50;;;6.00;99.90;;;;;;5064268;28;20021;-56
2022/02/06 10:21:14;;;;;;;0.40;0.30;;;5.90;99.90;;;;;;5081210;28;20081;-55
2022/02/06 10:23:52;;;;;;;1.92;0.80;;;5.90;99.90;;;;;;5063865;28;20107;-51
2022/02/06 10:26:52;;;;;;;0.47;0.40;;;5.90;99.90;;;;;;5081803;28;20085;-54
2022/02/06 10:31:51;;;;;;;1.13;0.60;;;5.90;99.90;;;;;;5082025;28;20077;-56
2022/02/06 10:34:36;;;;;;;1.42;0.50;;;5.90;99.90;;;;;;5084306;28;20028;-54
2022/02/06 10:37:15;;;;;;;0.93;0.50;;;5.80;99.90;;;;;;5079896;28;20024;-56
2022/02/06 10:39:53;;;;;;;0.95;0.50;;;5.80;99.90;;;;;;5081883;28;20028;-52
2022/02/06 10:42:27;;;;;;;0.68;0.30;;;5.80;99.90;;;;;;5081467;28;20657;-57
2022/02/06 10:45:18;;;;;;;1.67;0.30;;;5.70;99.90;;;;;;5081902;28;20021;-56
2022/02/06 10:47:48;;;;;;;3.70;0.77;;;5.80;99.90;;;;;;5070667;28;20064;-53
2022/02/06 10:50:18;;;;;;;0.70;0.20;;;5.70;99.90;;;;;;5080914;28;20025;-56
2022/02/06 10:52:45;;;;;;;0.70;0.35;;;5.80;99.90;;;;;;5080626;28;20074;-60
2022/02/06 10:55:14;;;;;;;1.45;0.85;;;5.70;99.90;;;;;;5080366;28;20035;-55
2022/02/06 10:57:57;;;;;;;2.03;0.73;;;5.60;99.90;;;;;;5079881;28;20048;-59
2022/02/06 11:00:34;;;;;;;1.38;0.30;;;5.60;99.90;;;;;;5082102;28;20502;-57
2022/02/06 11:03:23;;;;;;;0.88;0.55;;;5.60;99.90;;;;;;5080884;28;20028;-58
2022/02/06 11:06:05;;;;;;;0.93;0.47;;;5.60;99.90;;;;;;5063394;28;20048;-53
2022/02/06 11:08:32;;;;;;;0.70;0.50;;;5.50;99.90;;;;;;5080529;28;20851;-57
2022/02/06 11:11:04;;;;;;;1.05;0.30;;;5.50;99.90;;;;;;5080879;28;20019;-58
2022/02/06 11:13:31;;;;;;;0.30;0.30;;;5.50;99.90;;;;;;5080618;28;20016;-57
2022/02/06 11:16:01;;;;;;;0.57;0.43;;;5.50;99.90;;;;;;5081303;28;20028;-56
2022/02/06 11:18:33;;;;;;;0.60;0.35;;;5.50;99.90;;;;;;5080560;28;20020;-52
2022/02/06 11:21:06;;;;;;;2.45;0.70;;;5.50;99.90;;;;;;5082069;28;20496;-56
2022/02/06 11:23:37;;;;;;;1.30;0.70;;;5.50;99.90;;;;;;5081133;28;20028;-56
2022/02/06 11:26:13;;;;;;;1.08;0.90;;;5.40;99.90;;;;;;5081807;28;20139;-59
2022/02/06 11:28:40;;;;;;;1.63;0.70;;;5.50;99.90;;;;;;5079443;28;20016;-59
2022/02/06 11:31:06;;;;;;;1.27;0.90;;;5.50;99.90;;;;;;5081021;28;20047;-55
2022/02/06 11:33:33;;;;;;;1.23;0.90;;;5.50;99.90;;;;;;5079923;28;20043;-56
2022/02/06 11:36:03;;;;;;;2.35;0.60;;;5.50;99.90;;;;;;5081311;28;20602;-55
2022/02/06 11:44:44;;;;;;;0.50;0.50;;;5.50;99.90;;;;;;5080932;28;20067;-59
2022/02/06 11:47:23;;;;;;;0.63;0.52;;;5.40;99.90;;;;;;5081743;28;20032;-59
2022/02/06 11:49:52;;;;;;;1.65;0.40;;;5.40;99.90;;;;;;5080169;28;20078;-50
2022/02/06 11:52:17;;;;;;;0.60;0.60;;;5.40;99.90;;;;;;5079903;28;20112;-54
2022/02/06 11:54:45;;;;;;;1.17;0.98;;;5.40;99.90;;;;;;5079172;28;20095;-52
2022/02/06 12:00:04;;;;;;;0.55;0.30;;;5.30;99.90;;;;;;5079492;28;20028;-53
2022/02/06 12:02:32;;;;;;;2.72;0.40;;;5.30;99.90;;;;;;5079724;28;20032;-55
2022/02/06 12:05:21;;;;;;;1.75;0.52;;;5.20;99.90;;;;;;5081029;28;20115;-58
2022/02/06 12:07:52;;;;;;;0.32;0.25;;;5.20;99.90;;;;;;5079404;28;20560;-58
2022/02/06 12:10:44;;;;;;;3.80;2.90;;;5.20;99.90;;;;;;5063114;28;20105;-57
2022/02/06 12:13:19;;;;;;;6.47;4.20;;;5.10;99.90;;;;;;5041302;28;20081;-53
2022/02/06 12:16:18;;;;;;;0.93;0.90;;;5.20;99.90;;;;;;5080540;28;20107;-57
2022/02/06 12:18:43;;;;;;;2.60;0.82;;;5.10;99.90;;;;;;5079626;28;20039;-56
2022/02/06 12:21:22;;;;;;;1.58;1.30;;;5.10;99.90;;;;;;5079984;28;20028;-56
2022/02/06 12:23:54;;;;;;;6.55;4.28;;;5.10;99.90;;;;;;5080157;28;20045;-56
2022/02/06 12:26:27;;;;;;;5.28;2.60;;;5.10;99.90;;;;;;5080026;28;20723;-55
2022/02/06 12:28:54;;;;;;;2.03;1.38;;;5.10;99.90;;;;;;5079135;28;20023;-59
2022/02/06 12:31:28;;;;;;;1.20;0.90;;;5.10;99.90;;;;;;5080182;28;20016;-51
2022/02/06 12:33:58;;;;;;;1.05;0.95;;;5.00;99.90;;;;;;5078768;28;20020;-57
2022/02/06 12:39:28;;;;;;;6.40;5.78;;;4.90;99.90;;;;;;5082523;28;20048;-55
2022/02/06 12:41:55;;;;;;;8.95;8.05;;;4.80;99.90;;;;;;5079110;28;20040;-57
2022/02/06 12:44:24;;;;;;;7.22;6.55;;;4.80;99.90;;;;;;5078695;28;20111;-54
2022/02/06 12:46:51;;;;;;;7.45;6.80;;;4.80;99.90;;;;;;5079534;28;20071;-54
2022/02/06 12:49:21;;;;;;;4.15;3.85;;;4.70;99.90;;;;;;5079809;28;20028;-58
2022/02/06 12:51:54;;;;;;;7.80;7.10;;;4.70;99.90;;;;;;5079343;28;20492;-52
2022/02/06 12:54:21;;;;;;;9.00;8.20;;;4.70;99.90;;;;;;5064123;28;20024;-54
2022/02/06 12:56:47;;;;;;;22.30;20.27;;;4.60;99.90;;;;;;5083322;28;20016;-52
2022/02/06 12:59:18;;;;;;;6.80;6.30;;;4.60;99.90;;;;;;5083279;28;20090;-57
2022/02/06 13:01:45;;;;;;;5.65;5.25;;;4.50;99.90;;;;;;5083896;28;20174;-53
2022/02/06 13:04:23;;;;;;;3.78;3.58;;;4.40;99.90;;;;;;5065290;28;20036;-54
2022/02/06 13:06:52;;;;;;;1.60;1.50;;;4.40;99.90;;;;;;5082616;28;20048;-58
2022/02/06 13:09:28;;;;;;;2.88;2.50;;;4.40;99.90;;;;;;5083973;28;20062;-54
2022/02/06 13:12:08;;;;;;;0.95;0.95;;;4.40;99.90;;;;;;5083062;28;20025;-59
2022/02/06 13:20:30;;;;;;;0.80;0.60;;;4.30;99.90;;;;;;5083682;28;20053;-57
2022/02/06 13:23:17;;;;;;;0.52;0.40;;;4.30;99.90;;;;;;5082948;28;20541;-55
2022/02/06 13:33:47;;;;;;;0.52;0.38;;;4.20;99.90;;;;;;5082363;28;20020;-57
2022/02/06 13:38:50;;;;;;;1.40;0.20;;;4.10;99.90;;;;;;5083090;28;20028;-56
2022/02/06 13:41:18;;;;;;;0.60;0.40;;;4.10;99.90;;;;;;5066073;28;20027;-58
2022/02/06 13:43:44;;;;;;;0.40;0.20;;;4.10;99.90;;;;;;5082290;28;20086;-58
2022/02/06 13:46:18;;;;;;;0.30;0.30;;;4.10;99.90;;;;;;5082876;28;20027;-56
2022/02/06 13:48:48;;;;;;;0.43;0.20;;;4.10;99.90;;;;;;5082544;28;20024;-58
2022/02/06 13:51:14;;;;;;;0.75;0.40;;;4.00;99.90;;;;;;5083657;28;20027;-60
2022/02/06 13:54:00;;;;;;;0.20;0.20;;;4.00;99.90;;;;;;5082297;28;20519;-59
2022/02/06 13:56:28;;;;;;;0.73;0.43;;;4.00;99.90;;;;;;5082532;28;20067;-57
2022/02/06 13:59:05;;;;;;;0.30;0.30;;;4.00;99.90;;;;;;5083349;28;20534;-57
2022/02/06 14:01:47;;;;;;;0.60;0.40;;;4.00;99.90;;;;;;5084008;28;20024;-54
2022/02/06 14:04:21;;;;;;;0.20;0.20;;;4.00;99.90;;;;;;5082524;28;20024;-56
2022/02/06 14:06:59;;;;;;;0.25;0.20;;;3.90;99.90;;;;;;5083359;28;20870;-60
2022/02/06 14:09:45;;;;;;;1.10;0.30;;;4.00;99.90;;;;;;5082936;28;20503;-58
2022/02/06 14:12:16;;;;;;;0.82;0.47;;;4.00;99.90;;;;;;5081482;28;20024;-56
2022/02/06 14:14:57;;;;;;;0.30;0.20;;;4.00;99.90;;;;;;5081857;28;20145;-59
2022/02/06 14:17:28;;;;;;;0.63;0.35;;;4.00;99.90;;;;;;5081766;28;20020;-58
2022/02/06 14:19:57;;;;;;;0.65;0.55;;;4.00;99.90;;;;;;5082746;28;20373;-56
2022/02/06 14:22:34;;;;;;;0.60;0.60;;;4.00;99.90;;;;;;5081383;28;20027;-60
2022/02/06 14:25:12;;;;;;;1.05;0.40;;;4.00;99.90;;;;;;5082283;28;20028;-60
2022/02/06 14:27:43;;;;;;;0.75;0.63;;;4.00;99.90;;;;;;5081819;28;20098;-58
2022/02/06 14:30:13;;;;;;;1.15;0.70;;;4.00;99.90;;;;;;5082757;28;20023;-60
2022/02/06 14:33:06;;;;;;;1.15;0.60;;;4.00;99.90;;;;;;5081641;28;20701;-58
2022/02/06 14:35:47;;;;;;;1.50;0.65;;;4.00;99.90;;;;;;5083342;28;20114;-58
2022/02/06 14:38:23;;;;;;;2.75;1.05;;;4.10;99.90;;;;;;5081352;28;20043;-58
2022/02/06 14:40:53;;;;;;;0.40;0.40;;;4.00;99.90;;;;;;5082180;28;20090;-58
2022/02/06 14:43:39;;;;;;;0.60;0.60;;;4.10;99.90;;;;;;5081108;28;20024;-56
2022/02/06 14:46:06;;;;;;;1.20;0.70;;;4.10;99.90;;;;;;5081151;28;20028;-58
2022/02/06 14:48:32;;;;;;;2.10;0.63;;;4.10;99.90;;;;;;5081004;28;20112;-55
2022/02/06 14:50:58;;;;;;;2.25;0.50;;;4.10;99.90;;;;;;5080365;28;20031;-54
2022/02/06 14:53:24;;;;;;;2.47;0.55;;;4.10;99.90;;;;;;5080577;28;20024;-54
2022/02/06 14:55:52;;;;;;;1.98;0.82;;;4.10;99.90;;;;;;5065579;28;20052;-52
2022/02/06 14:58:19;;;;;;;2.45;0.90;;;4.10;99.90;;;;;;5080673;28;20373;-56
2022/02/06 15:00:46;;;;;;;0.60;0.60;;;4.20;99.90;;;;;;5082488;28;20028;-54
2022/02/06 15:03:13;;;;;;;3.38;1.15;;;4.10;99.90;;;;;;5080552;28;20024;-54
2022/02/06 15:05:39;;;;;;;2.85;0.82;;;4.20;99.90;;;;;;5082275;28;20539;-52
2022/02/06 15:08:06;;;;;;;1.08;0.95;;;4.20;99.90;;;;;;5080231;28;20043;-52
2022/02/06 15:10:34;;;;;;;2.70;0.95;;;4.20;99.90;;;;;;5082321;28;20017;-59
2022/02/06 15:13:01;;;;;;;3.65;0.80;;;4.20;99.90;;;;;;5080098;28;20054;-58
2022/02/06 15:15:32;;;;;;;4.32;1.00;;;4.20;99.90;;;;;;5081456;28;20020;-51
2022/02/06 15:18:02;;;;;;;1.05;0.70;;;4.30;99.90;;;;;;5080314;28;20025;-56
2022/02/06 15:20:28;;;;;;;2.97;1.45;;;4.30;99.90;;;;;;5081535;28;20025;-58
2022/02/06 15:22:53;;;;;;;3.63;2.20;;;4.40;99.90;;;;;;5063105;28;20057;-52
2022/02/06 15:25:19;;;;;;;2.67;1.50;;;4.40;99.90;;;;;;5080847;28;20032;-49
2022/02/06 15:27:44;;;;;;;5.28;2.67;;;4.40;99.90;;;;;;5080626;28;20050;-52
2022/02/06 15:30:10;;;;;;;4.65;2.75;;;4.50;99.90;;;;;;5080619;28;20028;-55
2022/02/06 15:32:36;;;;;;;11.02;3.88;;;4.50;99.90;;;;;;5079628;28;20025;-49
2022/02/06 15:35:01;;;;;;;3.17;1.80;;;4.50;99.90;;;;;;5081825;28;20472;-53
2022/02/06 15:37:29;;;;;;;8.57;2.90;;;4.50;99.90;;;;;;5080169;28;20095;-53
2022/02/06 15:39:57;;;;;;;12.13;3.60;;;4.60;99.90;;;;;;5081186;28;20419;-53
2022/02/06 15:42:23;;;;;;;7.15;1.80;;;4.60;99.90;;;;;;5080597;28;20051;-55
2022/02/06 15:44:50;;;;;;;9.43;2.15;;;4.60;99.90;;;;;;5079705;28;20442;-55
2022/02/06 15:47:16;;;;;;;5.78;1.70;;;4.60;99.90;;;;;;5080495;28;20028;-52
2022/02/06 15:49:42;;;;;;;5.65;1.48;;;4.70;99.90;;;;;;5080145;28;20081;-53
2022/02/06 15:52:10;;;;;;;5.38;1.65;;;4.70;99.90;;;;;;5079972;28;20107;-53